Time;durP1;ratioP1;P1;durP2;ratioP2;P2;SDS_P1;SDS_P2;PMS_P1;PMS_P2;Temp;Humidity;BMP_temperature;BMP_pressure;BME280_temperature;BME280_humidity;BME280_pressure;Samples;Min_cycle;Max_cycle;Signal;HPM_P1;HPM_P2
2023/03/05 00:00:26;;;;;;;43.17;25.65;;;;;;;6.45;100.00;101128.50;2066274;28;20723;-63
2023/03/05 00:01:32;;;;;;;42.83;25.97;;;;;;;6.48;100.00;101132.44;2069864;28;20173;-64
2023/03/05 00:02:32;;;;;;;39.83;25.25;;;;;;;6.43;100.00;101121.81;2072332;28;20200;-63
2023/03/05 00:03:33;;;;;;;39.30;26.40;;;;;;;6.12;100.00;101073.84;2072429;28;20683;-63
2023/03/05 00:04:33;;;;;;;38.60;26.07;;;;;;;5.89;100.00;101036.84;2072166;28;20266;-63
2023/03/05 00:05:34;;;;;;;36.77;24.70;;;;;;;6.51;100.00;101131.66;2070423;28;20248;-63
2023/03/05 00:06:34;;;;;;;38.73;25.30;;;;;;;6.40;100.00;101122.63;2064726;28;20208;-63
2023/03/05 00:07:35;;;;;;;37.23;25.70;;;;;;;6.02;100.00;101082.06;2072531;28;20176;-64
2023/03/05 00:08:36;;;;;;;40.63;25.53;;;;;;;6.38;100.00;101127.72;2070035;28;20193;-63
2023/03/05 00:09:36;;;;;;;43.07;26.40;;;;;;;6.43;100.00;101122.63;2072397;28;20173;-63
2023/03/05 00:10:37;;;;;;;44.03;27.50;;;;;;;6.46;100.00;101124.56;2066346;28;20194;-64
2023/03/05 00:11:38;;;;;;;40.73;26.37;;;;;;;6.47;100.00;101126.13;2068522;28;20198;-64
2023/03/05 00:12:39;;;;;;;42.35;26.60;;;;;;;6.44;100.00;101120.63;2069147;28;20194;-63
2023/03/05 00:13:39;;;;;;;40.33;26.07;;;;;;;6.49;100.00;101120.25;2066018;28;20178;-63
2023/03/05 00:14:40;;;;;;;45.20;27.07;;;;;;;6.51;100.00;101126.16;2071236;28;20418;-63
2023/03/05 00:15:41;;;;;;;43.93;27.00;;;;;;;6.42;100.00;101112.75;2064400;28;20181;-64
2023/03/05 00:16:42;;;;;;;43.30;27.42;;;;;;;6.39;100.00;101112.75;2072103;28;20655;-63
2023/03/05 00:17:42;;;;;;;37.53;26.13;;;;;;;6.44;100.00;101115.94;2065482;28;20562;-63
2023/03/05 00:18:43;;;;;;;40.87;26.80;;;;;;;6.44;100.00;101117.88;2069889;28;20189;-63
2023/03/05 00:19:44;;;;;;;42.17;26.55;;;;;;;6.51;100.00;101110.41;2072433;28;20200;-63
2023/03/05 00:20:45;;;;;;;41.80;26.30;;;;;;;6.49;100.00;101114.75;2071616;28;20275;-64
2023/03/05 00:21:45;;;;;;;42.17;26.43;;;;;;;6.49;100.00;101106.47;2071978;28;20180;-64
2023/03/05 00:22:46;;;;;;;42.80;27.07;;;;;;;6.47;100.00;101112.38;2072085;28;20567;-63
2023/03/05 00:23:46;;;;;;;45.90;27.07;;;;;;;6.51;100.00;101113.16;2071900;28;20174;-63
2023/03/05 00:24:50;;;;;;;40.60;26.33;;;;;;;6.55;100.00;101107.66;2064247;28;20254;-63
2023/03/05 00:25:50;;;;;;;40.70;25.98;;;;;;;6.56;100.00;101115.53;2071142;28;20189;-64
2023/03/05 00:26:52;;;;;;;42.70;25.53;;;;;;;6.52;100.00;101111.97;2072065;28;20185;-64
2023/03/05 00:27:52;;;;;;;40.53;25.63;;;;;;;6.56;100.00;101109.25;2072295;28;20239;-63
2023/03/05 00:28:55;;;;;;;39.43;24.37;;;;;;;6.49;100.00;101123.81;2072259;28;20224;-63
2023/03/05 00:29:56;;;;;;;38.80;24.73;;;;;;;6.59;100.00;101116.72;2072397;28;20272;-64
2023/03/05 00:30:59;;;;;;;41.63;25.23;;;;;;;6.58;100.00;101109.63;2069301;28;20188;-63
2023/03/05 00:32:00;;;;;;;41.80;25.90;;;;;;;6.55;100.00;101102.16;2065421;28;20201;-63
2023/03/05 00:33:00;;;;;;;42.23;25.87;;;;;;;6.53;100.00;101121.03;2072057;28;20174;-63
2023/03/05 00:34:07;;;;;;;40.93;26.20;;;;;;;6.55;100.00;101104.91;2072174;28;20575;-64
2023/03/05 00:35:08;;;;;;;39.63;26.40;;;;;;;6.60;100.00;101097.03;2072120;28;20232;-63
2023/03/05 00:36:09;;;;;;;38.43;26.33;;;;;;;6.31;100.00;101056.16;2072184;28;20227;-63
2023/03/05 00:37:09;;;;;;;38.07;25.33;;;;;;;6.66;100.00;101109.22;2072175;28;20185;-63
2023/03/05 00:38:11;;;;;;;41.73;25.23;;;;;;;6.69;100.00;101100.19;2072215;28;20200;-63
2023/03/05 00:39:12;;;;;;;37.22;25.00;;;;;;;6.67;100.00;101093.50;2072159;28;20637;-64
2023/03/05 00:40:13;;;;;;;38.70;24.63;;;;;;;6.18;100.00;101032.94;2071633;28;20185;-63
2023/03/05 00:41:13;;;;;;;35.93;24.87;;;;;;;6.62;100.00;101091.91;2072004;28;20185;-63
2023/03/05 00:42:13;;;;;;;36.67;25.10;;;;;;;6.63;100.00;101088.00;2072100;28;20618;-63
2023/03/05 00:43:14;;;;;;;40.47;25.03;;;;;;;6.63;100.00;101100.97;2072181;28;20324;-63
2023/03/05 00:44:14;;;;;;;40.63;25.93;;;;;;;6.15;100.00;101015.25;2072215;28;20244;-63
2023/03/05 00:45:15;;;;;;;41.93;25.00;;;;;;;6.61;100.00;101090.34;2072087;28;20320;-63
2023/03/05 00:46:16;;;;;;;38.13;24.67;;;;;;;6.65;100.00;101085.63;2071917;28;20753;-63
2023/03/05 00:47:17;;;;;;;37.60;25.60;;;;;;;6.65;100.00;101082.09;2072152;28;20257;-63
2023/03/05 00:48:17;;;;;;;35.97;24.80;;;;;;;6.67;100.00;101088.00;2072092;28;20262;-63
2023/03/05 00:49:18;;;;;;;41.20;25.57;;;;;;;6.66;100.00;101083.69;2072238;28;20174;-63
2023/03/05 00:50:18;;;;;;;36.50;24.13;;;;;;;6.64;100.00;101077.75;2071497;28;20276;-63
2023/03/05 00:51:19;;;;;;;39.70;25.30;;;;;;;6.60;100.00;101074.22;2072380;28;20178;-63
2023/03/05 00:52:20;;;;;;;37.40;25.07;;;;;;;6.59;100.00;101076.19;2072003;28;20188;-63
2023/03/05 00:53:21;;;;;;;34.93;23.87;;;;;;;6.63;100.00;101078.94;2072035;28;20538;-63
2023/03/05 00:54:22;;;;;;;34.30;24.25;;;;;;;6.65;100.00;101079.31;2072093;28;20186;-63
2023/03/05 00:55:22;;;;;;;34.33;23.93;;;;;;;6.65;100.00;101080.13;2072235;28;20212;-63
2023/03/05 00:56:23;;;;;;;39.13;25.37;;;;;;;6.65;100.00;101077.38;2072127;28;20255;-63
2023/03/05 00:57:23;;;;;;;38.60;25.20;;;;;;;6.64;100.00;101081.31;2072066;28;20179;-63
2023/03/05 00:58:24;;;;;;;41.17;24.30;;;;;;;6.63;100.00;101084.47;2071966;28;20202;-63
2023/03/05 00:59:24;;;;;;;39.53;25.17;;;;;;;6.64;100.00;101073.06;2072144;28;20236;-63
2023/03/05 01:00:25;;;;;;;41.87;24.97;;;;;;;6.62;100.00;101074.63;2063915;28;20194;-64
2023/03/05 01:01:25;;;;;;;35.60;24.00;;;;;;;6.59;100.00;101072.66;2070417;28;20228;-63
2023/03/05 01:02:26;;;;;;;37.87;24.53;;;;;;;6.62;100.00;101069.13;2066705;28;20587;-63
2023/03/05 01:03:27;;;;;;;36.30;24.53;;;;;;;6.42;100.00;101043.94;2068162;28;20202;-63
2023/03/05 01:04:27;;;;;;;37.43;24.57;;;;;;;6.57;100.00;101066.75;2068825;28;20217;-63
2023/03/05 01:05:27;;;;;;;38.93;24.60;;;;;;;6.60;100.00;101066.75;2065927;28;20563;-63
2023/03/05 01:06:28;;;;;;;35.70;24.20;;;;;;;6.61;100.00;101065.56;2072463;28;20208;-63
2023/03/05 01:07:28;;;;;;;36.23;24.30;;;;;;;6.60;100.00;101060.44;2065801;28;20166;-63
2023/03/05 01:08:29;;;;;;;38.83;24.30;;;;;;;6.43;100.00;101042.78;2073253;28;20192;-63
2023/03/05 01:09:29;;;;;;;36.40;23.70;;;;;;;6.46;100.00;101060.47;2066777;28;20279;-63
2023/03/05 01:10:30;;;;;;;37.80;24.30;;;;;;;6.54;100.00;101057.31;2070323;28;20266;-63
2023/03/05 01:11:30;;;;;;;38.43;24.10;;;;;;;6.13;100.00;101003.84;2073291;28;20212;-63
2023/03/05 01:12:31;;;;;;;40.47;24.77;;;;;;;6.36;100.00;101031.00;2072960;28;20244;-63
2023/03/05 01:13:31;;;;;;;36.07;23.63;;;;;;;6.56;100.00;101056.94;2072880;28;20205;-63
2023/03/05 01:14:33;;;;;;;37.93;23.97;;;;;;;6.55;100.00;101055.34;2073063;28;20247;-63
2023/03/05 01:15:33;;;;;;;37.35;23.30;;;;;;;6.58;100.00;101057.31;2073703;28;20180;-63
2023/03/05 01:16:34;;;;;;;36.37;23.97;;;;;;;5.75;100.00;100935.03;2073437;28;20750;-63
2023/03/05 01:17:34;;;;;;;35.13;23.07;;;;;;;6.50;100.00;101059.28;2073686;28;20188;-64
2023/03/05 01:18:37;;;;;;;37.70;23.40;;;;;;;6.45;100.00;101045.13;2073034;28;20197;-63
2023/03/05 01:19:38;;;;;;;36.13;23.17;;;;;;;6.49;100.00;101054.16;2073043;28;20219;-63
2023/03/05 01:20:38;;;;;;;37.30;23.50;;;;;;;6.51;100.00;101049.06;2072958;28;20185;-63
2023/03/05 01:21:39;;;;;;;35.87;22.10;;;;;;;6.49;100.00;101052.22;2072942;28;20180;-63
2023/03/05 01:22:40;;;;;;;38.43;23.07;;;;;;;6.47;100.00;101049.06;2072927;28;20181;-63
2023/03/05 01:23:40;;;;;;;34.10;21.97;;;;;;;6.44;100.00;101057.31;2073018;28;20259;-63
2023/03/05 01:24:40;;;;;;;34.70;23.23;;;;;;;6.46;100.00;101054.97;2073606;28;20259;-64
2023/03/05 01:25:41;;;;;;;34.20;23.90;;;;;;;5.66;100.00;100926.38;2072880;28;20238;-63
2023/03/05 01:26:41;;;;;;;35.87;23.60;;;;;;;6.38;100.00;101048.69;2073045;28;20640;-63
2023/03/05 01:28:00;;;;;;;34.73;23.67;;;;;;;6.47;100.00;101056.53;2068682;28;20196;-63
2023/03/05 01:29:01;;;;;;;34.78;23.15;;;;;;;6.01;100.00;100984.19;2069982;28;20186;-63
2023/03/05 01:30:02;;;;;;;39.40;23.53;;;;;;;6.52;100.00;101053.38;2065185;28;20259;-63
2023/03/05 01:31:07;;;;;;;33.30;24.13;;;;;;;6.47;100.00;101068.31;2069064;28;20846;-63
2023/03/05 01:32:07;;;;;;;38.47;25.08;;;;;;;6.43;100.00;101056.53;2072316;28;20202;-63
2023/03/05 01:33:08;;;;;;;40.27;24.37;;;;;;;6.33;100.00;101045.53;2072453;28;20205;-64
2023/03/05 01:34:08;;;;;;;40.80;25.70;;;;;;;6.32;100.00;101046.72;2071233;28;20630;-63
2023/03/05 01:35:14;;;;;;;39.27;24.93;;;;;;;6.02;100.00;101007.78;2067612;28;20189;-63
2023/03/05 01:36:15;;;;;;;40.20;24.33;;;;;;;6.34;100.00;101050.63;2070107;28;20558;-63
2023/03/05 01:37:16;;;;;;;37.80;24.27;;;;;;;6.34;100.00;101047.88;2072751;28;20567;-63
2023/03/05 01:38:16;;;;;;;38.07;24.83;;;;;;;6.37;100.00;101051.81;2067527;28;20578;-63
2023/03/05 01:39:17;;;;;;;38.77;23.07;;;;;;;6.11;100.00;101008.94;2070726;28;20665;-63
2023/03/05 01:40:24;;;;;;;37.87;24.53;;;;;;;6.38;100.00;101051.44;2072492;28;20711;-63
2023/03/05 01:41:25;;;;;;;35.75;24.15;;;;;;;6.38;100.00;101047.88;2071845;28;20208;-63
2023/03/05 01:42:27;;;;;;;39.13;23.60;;;;;;;6.35;100.00;101043.94;2072868;28;20186;-63
2023/03/05 01:43:29;;;;;;;37.03;25.40;;;;;;;6.30;100.00;101049.09;2071587;28;20548;-63
2023/03/05 01:44:30;;;;;;;39.28;23.75;;;;;;;6.34;100.00;101042.38;2072865;28;20235;-63
2023/03/05 01:45:31;;;;;;;35.73;24.00;;;;;;;6.37;100.00;101038.84;2072941;28;20497;-63
2023/03/05 01:46:36;;;;;;;40.22;24.00;;;;;;;6.20;100.00;101011.34;2073043;28;20210;-64
2023/03/05 01:47:38;;;;;;;36.50;23.15;;;;;;;6.31;100.00;101034.91;2065652;28;20608;-64
2023/03/05 01:48:40;;;;;;;35.00;23.63;;;;;;;6.25;100.00;101041.22;2069734;28;20196;-63
2023/03/05 01:49:41;;;;;;;40.58;24.45;;;;;;;6.28;100.00;101035.72;2076874;28;20224;-63
2023/03/05 01:50:41;;;;;;;35.43;22.87;;;;;;;6.30;100.00;101027.81;2075157;28;20200;-64
2023/03/05 01:52:18;;;;;;;37.60;22.93;;;;;;;6.26;100.00;101035.28;2065992;28;20186;-63
2023/03/05 01:53:19;;;;;;;37.55;23.85;;;;;;;6.26;100.00;101037.28;2071802;28;20195;-63
2023/03/05 01:54:24;;;;;;;33.60;21.93;;;;;;;6.22;100.00;101031.78;2075153;28;20278;-63
2023/03/05 01:55:28;;;;;;;33.75;22.65;;;;;;;5.60;100.00;100950.72;2080542;28;20561;-63
2023/03/05 01:56:29;;;;;;;38.33;23.27;;;;;;;6.21;100.00;101034.91;2080387;28;20716;-63
2023/03/05 01:57:36;;;;;;;34.35;21.85;;;;;;;6.26;100.00;101031.78;2073397;28;20169;-64
2023/03/05 01:58:38;;;;;;;38.95;23.95;;;;;;;6.25;100.00;101028.22;2072347;28;20196;-63
2023/03/05 01:59:42;;;;;;;36.15;23.30;;;;;;;6.17;100.00;101012.91;2071883;28;20271;-63
2023/03/05 02:00:47;;;;;;;34.30;22.45;;;;;;;5.93;100.00;100982.63;2076598;28;20286;-63
2023/03/05 02:01:51;;;;;;;37.28;23.75;;;;;;;6.25;100.00;101046.72;2076151;28;20197;-63
2023/03/05 02:02:52;;;;;;;37.80;23.25;;;;;;;6.15;100.00;101025.47;2074407;28;20286;-63
2023/03/05 02:03:53;;;;;;;37.58;25.08;;;;;;;6.21;100.00;101043.16;2080128;28;20180;-63
2023/03/05 02:05:00;;;;;;;38.40;23.97;;;;;;;6.28;100.00;101034.91;2081297;28;20173;-63
2023/03/05 02:06:00;;;;;;;38.00;25.52;;;;;;;6.26;100.00;101029.03;2065209;28;20182;-63
2023/03/05 02:07:01;;;;;;;38.33;24.50;;;;;;;6.30;100.00;101038.06;2078002;28;20701;-63
2023/03/05 02:08:05;;;;;;;36.17;23.60;;;;;;;5.85;100.00;100956.28;2080438;28;20600;-63
2023/03/05 02:09:06;;;;;;;35.17;23.92;;;;;;;6.35;100.00;101041.19;2075843;28;20678;-63
2023/03/05 02:10:21;;;;;;;36.40;24.20;;;;;;;6.36;100.00;101039.25;2073862;28;20541;-63
2023/03/05 02:11:22;;;;;;;36.63;24.65;;;;;;;6.33;100.00;101021.56;2076453;28;20251;-63
2023/03/05 02:12:22;;;;;;;37.43;24.30;;;;;;;6.37;100.00;101041.59;2073017;28;20556;-63
2023/03/05 02:13:26;;;;;;;38.90;24.43;;;;;;;6.37;100.00;101038.06;2081211;28;20565;-63
2023/03/05 02:14:27;;;;;;;42.13;24.95;;;;;;;6.07;100.00;100977.13;2072435;28;20689;-63
2023/03/05 02:15:29;;;;;;;41.67;26.10;;;;;;;6.37;100.00;101038.84;2066352;28;20581;-63
2023/03/05 02:16:35;;;;;;;38.97;26.52;;;;;;;6.37;100.00;101036.09;2070376;28;20231;-63
2023/03/05 02:17:35;;;;;;;39.33;24.58;;;;;;;6.40;100.00;101035.28;2071083;28;20287;-63
2023/03/05 02:18:36;;;;;;;38.27;24.80;;;;;;;6.22;100.00;101004.25;2070267;28;20189;-64
2023/03/05 02:19:55;;;;;;;41.67;25.23;;;;;;;6.44;100.00;101035.28;2064232;28;20605;-63
2023/03/05 02:20:55;;;;;;;37.47;25.15;;;;;;;6.43;100.00;101034.53;2065647;28;20538;-63
2023/03/05 02:21:55;;;;;;;41.07;25.57;;;;;;;6.46;100.00;101039.22;2077698;28;20182;-63
2023/03/05 02:22:56;;;;;;;41.10;25.87;;;;;;;6.52;100.00;101037.63;2072015;28;20204;-63
2023/03/05 02:23:56;;;;;;;38.20;24.90;;;;;;;6.51;100.00;101040.81;2072338;28;20667;-63
2023/03/05 02:24:57;;;;;;;39.07;25.53;;;;;;;6.53;100.00;101036.47;2072192;28;20185;-63
2023/03/05 02:25:57;;;;;;;37.00;24.20;;;;;;;6.54;100.00;101035.28;2072862;28;20528;-63
2023/03/05 02:26:59;;;;;;;42.93;25.20;;;;;;;5.90;100.00;100933.91;2072819;28;20271;-63
2023/03/05 02:28:10;;;;;;;38.65;25.10;;;;;;;6.53;100.00;101038.44;2072855;28;20181;-63
2023/03/05 02:29:16;;;;;;;41.53;25.45;;;;;;;6.56;100.00;101029.41;2072922;28;20248;-63
2023/03/05 02:30:18;;;;;;;35.60;23.83;;;;;;;6.36;100.00;101022.72;2072167;28;20166;-63
2023/03/05 02:31:21;;;;;;;40.70;25.58;;;;;;;6.52;100.00;101032.13;2073148;28;20184;-63
2023/03/05 02:32:22;;;;;;;37.90;25.17;;;;;;;6.47;100.00;101035.28;2064913;28;20228;-63
2023/03/05 02:33:23;;;;;;;41.73;25.70;;;;;;;6.46;100.00;101030.97;2071719;28;20216;-63
2023/03/05 02:34:23;;;;;;;45.28;24.85;;;;;;;6.46;100.00;101036.47;2072713;28;20215;-63
2023/03/05 02:35:24;;;;;;;40.20;25.70;;;;;;;6.42;100.00;101024.66;2072866;28;20195;-63
2023/03/05 02:36:24;;;;;;;41.50;25.73;;;;;;;6.52;100.00;101054.16;2072913;28;20280;-63
2023/03/05 02:37:25;;;;;;;39.50;24.13;;;;;;;6.52;100.00;101031.38;2072738;28;20259;-63
2023/03/05 02:38:25;;;;;;;35.40;24.97;;;;;;;6.55;100.00;101027.81;2072736;28;20173;-63
2023/03/05 02:39:26;;;;;;;41.63;25.23;;;;;;;6.45;100.00;101010.13;2072865;28;20260;-63
2023/03/05 02:40:26;;;;;;;37.37;24.00;;;;;;;6.57;100.00;101028.22;2072367;28;20533;-63
2023/03/05 02:41:27;;;;;;;39.63;25.27;;;;;;;6.56;100.00;101035.69;2072951;28;20193;-63
2023/03/05 02:42:29;;;;;;;40.23;25.27;;;;;;;6.54;100.00;101026.25;2072638;28;20220;-63
2023/03/05 02:43:30;;;;;;;41.30;25.30;;;;;;;6.53;100.00;101030.19;2072667;28;20193;-64
2023/03/05 02:44:30;;;;;;;42.30;26.13;;;;;;;6.53;100.00;101036.47;2072730;28;20216;-63
2023/03/05 02:45:31;;;;;;;40.43;25.37;;;;;;;6.54;100.00;101035.28;2072697;28;20197;-63
2023/03/05 02:46:32;;;;;;;40.73;25.53;;;;;;;6.54;100.00;101029.78;2072546;28;20229;-63
2023/03/05 02:47:33;;;;;;;39.10;24.83;;;;;;;6.52;100.00;101029.38;2072800;28;20415;-63
2023/03/05 02:48:33;;;;;;;42.70;25.73;;;;;;;6.00;100.00;100950.38;2072975;28;20203;-63
2023/03/05 02:49:34;;;;;;;41.77;25.33;;;;;;;6.53;100.00;101032.94;2072746;28;20277;-63
2023/03/05 02:50:35;;;;;;;38.50;25.23;;;;;;;6.51;100.00;101027.81;2072283;28;20218;-64
2023/03/05 02:51:35;;;;;;;42.58;25.33;;;;;;;4.87;100.00;100781.06;2072707;28;20191;-64
2023/03/05 02:52:36;;;;;;;39.47;26.00;;;;;;;6.40;100.00;101032.53;2072681;28;20212;-63
2023/03/05 02:53:37;;;;;;;39.73;24.53;;;;;;;6.33;100.00;101024.31;2069000;28;20194;-63
2023/03/05 02:54:37;;;;;;;42.20;26.70;;;;;;;6.37;100.00;101019.59;2066946;28;20573;-64
2023/03/05 02:55:37;;;;;;;40.13;25.30;;;;;;;6.27;100.00;101019.56;2071608;28;20529;-63
2023/03/05 02:56:38;;;;;;;37.67;25.37;;;;;;;6.12;100.00;100996.78;2064935;28;20592;-63
2023/03/05 02:57:38;;;;;;;39.23;25.63;;;;;;;6.33;100.00;101035.31;2064772;28;20185;-63
2023/03/05 02:58:39;;;;;;;37.13;24.07;;;;;;;6.29;100.00;101025.47;2064274;28;20257;-63
2023/03/05 02:59:39;;;;;;;39.20;23.83;;;;;;;6.24;100.00;101029.41;2070304;28;20235;-63
2023/03/05 03:00:40;;;;;;;43.57;25.43;;;;;;;5.52;100.00;100943.66;2067421;28;20193;-63
2023/03/05 03:01:40;;;;;;;39.20;24.60;;;;;;;6.13;100.00;101020.38;2071988;28;20174;-63
2023/03/05 03:02:41;;;;;;;37.67;24.23;;;;;;;5.92;100.00;101006.59;2069711;28;20170;-63
2023/03/05 03:03:41;;;;;;;36.70;24.33;;;;;;;6.07;100.00;101032.94;2065575;28;20217;-63
2023/03/05 03:04:43;;;;;;;38.93;24.03;;;;;;;6.11;100.00;101032.94;2072528;28;20838;-63
2023/03/05 03:05:44;;;;;;;37.75;24.38;;;;;;;6.05;100.00;101032.53;2064654;28;20175;-63
2023/03/05 03:06:44;;;;;;;39.23;25.33;;;;;;;5.96;100.00;101023.91;2064599;28;20206;-63
2023/03/05 03:07:45;;;;;;;42.03;24.70;;;;;;;5.92;100.00;101036.06;2070662;28;20182;-63
2023/03/05 03:08:45;;;;;;;44.03;25.10;;;;;;;5.68;100.00;100995.50;2072670;28;20201;-63
2023/03/05 03:09:46;;;;;;;39.30;24.67;;;;;;;5.86;100.00;101032.13;2072710;28;20242;-63
2023/03/05 03:10:46;;;;;;;39.20;25.60;;;;;;;5.91;100.00;101038.03;2072013;28;20188;-63
2023/03/05 03:11:46;;;;;;;40.97;25.83;;;;;;;5.93;100.00;101034.88;2072619;28;20610;-64
2023/03/05 03:12:47;;;;;;;37.07;24.13;;;;;;;4.84;100.00;100857.94;2072481;28;20181;-63
2023/03/05 03:13:47;;;;;;;38.20;24.07;;;;;;;6.01;100.00;101033.72;2072491;28;20265;-63
2023/03/05 03:14:48;;;;;;;37.63;25.13;;;;;;;6.04;100.00;101032.91;2072627;28;20574;-63
2023/03/05 03:15:48;;;;;;;38.57;25.20;;;;;;;6.00;100.00;101032.16;2072566;28;20182;-63
2023/03/05 03:16:49;;;;;;;39.67;25.17;;;;;;;6.03;100.00;101034.91;2072662;28;20197;-63
2023/03/05 03:17:49;;;;;;;36.30;24.30;;;;;;;5.31;100.00;100910.63;2072654;28;20235;-63
2023/03/05 03:18:50;;;;;;;39.30;24.33;;;;;;;6.05;100.00;101038.03;2072643;28;20765;-63
2023/03/05 03:19:50;;;;;;;39.17;24.07;;;;;;;6.05;100.00;101031.75;2072657;28;20181;-63
2023/03/05 03:20:51;;;;;;;40.03;25.20;;;;;;;6.03;100.00;101032.16;2071926;28;20175;-63
2023/03/05 03:21:53;;;;;;;37.00;24.10;;;;;;;6.08;100.00;101030.97;2072548;28;20187;-63
2023/03/05 03:22:54;;;;;;;38.05;24.88;;;;;;;6.03;100.00;101023.91;2071852;28;20191;-63
2023/03/05 03:23:57;;;;;;;38.30;24.37;;;;;;;6.01;100.00;101019.97;2071829;28;20203;-63
2023/03/05 03:24:57;;;;;;;35.47;23.70;;;;;;;6.05;100.00;101024.28;2069727;28;20297;-63
2023/03/05 03:25:58;;;;;;;36.33;24.10;;;;;;;6.07;100.00;101030.19;2072675;28;20172;-63
2023/03/05 03:26:59;;;;;;;41.43;23.03;;;;;;;6.11;100.00;101041.97;2072568;28;20262;-63
2023/03/05 03:27:59;;;;;;;37.63;23.92;;;;;;;6.09;100.00;101035.28;2072589;28;20570;-63
2023/03/05 03:28:59;;;;;;;40.30;24.00;;;;;;;6.11;100.00;101021.94;2071944;28;20201;-63
2023/03/05 03:30:03;;;;;;;38.27;22.87;;;;;;;6.07;100.00;101024.69;2072661;28;20677;-63
2023/03/05 03:31:04;;;;;;;36.17;24.00;;;;;;;6.09;100.00;101022.31;2072308;28;20311;-63
2023/03/05 03:32:04;;;;;;;36.37;23.27;;;;;;;6.11;100.00;101021.94;2072719;28;20231;-63
2023/03/05 03:33:05;;;;;;;38.37;24.20;;;;;;;6.10;100.00;101028.63;2070840;28;20192;-63
2023/03/05 03:34:05;;;;;;;42.40;24.43;;;;;;;6.13;100.00;101019.56;2064688;28;20260;-63
2023/03/05 03:35:06;;;;;;;37.60;23.63;;;;;;;5.94;100.00;100986.97;2071866;28;20192;-63
2023/03/05 03:36:07;;;;;;;37.07;24.03;;;;;;;6.16;100.00;101016.03;2064310;28;20190;-63
2023/03/05 03:37:07;;;;;;;34.60;23.43;;;;;;;6.13;100.00;101012.13;2070837;28;20192;-63
2023/03/05 03:38:08;;;;;;;39.80;23.97;;;;;;;6.11;100.00;101019.19;2067335;28;20205;-63
2023/03/05 03:39:09;;;;;;;37.80;23.73;;;;;;;6.14;100.00;101021.94;2068496;28;20212;-63
2023/03/05 03:40:10;;;;;;;35.65;22.92;;;;;;;5.66;100.00;100940.13;2072129;28;20279;-63
2023/03/05 03:41:11;;;;;;;36.35;22.65;;;;;;;6.11;100.00;101017.19;2072346;28;20659;-63
2023/03/05 03:42:11;;;;;;;33.27;22.63;;;;;;;6.06;100.00;101014.84;2071370;28;20676;-64
2023/03/05 03:43:12;;;;;;;35.37;22.83;;;;;;;6.10;100.00;101014.88;2064320;28;20178;-63
2023/03/05 03:44:12;;;;;;;33.50;21.93;;;;;;;5.60;100.00;100927.97;2072456;28;20261;-63
2023/03/05 03:45:13;;;;;;;33.53;21.87;;;;;;;6.16;100.00;101019.56;2064892;28;20209;-63
2023/03/05 03:46:13;;;;;;;32.77;22.13;;;;;;;6.21;100.00;101018.41;2069250;28;20694;-63
2023/03/05 03:47:14;;;;;;;32.80;22.03;;;;;;;6.21;100.00;101019.16;2067999;28;20557;-63
2023/03/05 03:48:15;;;;;;;36.92;22.25;;;;;;;6.20;100.00;101014.84;2067626;28;20238;-63
2023/03/05 03:49:25;;;;;;;36.30;21.97;;;;;;;6.21;100.00;101015.66;2070144;28;20177;-63
2023/03/05 03:50:26;;;;;;;34.13;21.33;;;;;;;6.20;100.00;101014.84;2066334;28;20159;-63
2023/03/05 03:51:26;;;;;;;36.40;21.77;;;;;;;6.23;100.00;101016.84;2070939;28;20178;-63
2023/03/05 03:52:27;;;;;;;33.27;22.40;;;;;;;6.14;100.00;101001.88;2064467;28;20178;-63
2023/03/05 03:53:27;;;;;;;30.83;21.40;;;;;;;6.26;100.00;101023.53;2072363;28;20170;-63
2023/03/05 03:54:28;;;;;;;33.17;21.57;;;;;;;6.24;100.00;101015.66;2065162;28;20182;-63
2023/03/05 03:55:28;;;;;;;33.67;22.47;;;;;;;6.31;100.00;101012.88;2069558;28;20701;-63
2023/03/05 03:56:28;;;;;;;34.37;22.90;;;;;;;6.31;100.00;101015.63;2066902;28;20185;-63
2023/03/05 03:57:30;;;;;;;32.80;21.53;;;;;;;6.30;100.00;101027.81;2071713;28;20184;-63
2023/03/05 03:58:30;;;;;;;31.40;21.63;;;;;;;6.28;100.00;101007.38;2077126;28;20894;-63
2023/03/05 03:59:31;;;;;;;33.47;22.03;;;;;;;6.38;100.00;101036.88;2073134;28;20660;-63
2023/03/05 04:00:31;;;;;;;34.80;22.47;;;;;;;6.36;100.00;101015.25;2079634;28;20637;-63
2023/03/05 04:01:32;;;;;;;33.97;22.60;;;;;;;6.43;100.00;101017.22;2072620;28;20196;-63
2023/03/05 04:02:32;;;;;;;32.00;21.40;;;;;;;6.44;100.00;101035.28;2079805;28;20339;-63
2023/03/05 04:03:33;;;;;;;34.57;22.33;;;;;;;6.48;100.00;101016.81;2073974;28;20197;-63
2023/03/05 04:04:33;;;;;;;36.40;22.33;;;;;;;6.43;100.00;101023.50;2077486;28;20221;-63
2023/03/05 04:05:34;;;;;;;31.50;21.07;;;;;;;6.41;100.00;101025.84;2076392;28;20190;-63
2023/03/05 04:06:34;;;;;;;31.30;20.97;;;;;;;6.34;100.00;101031.38;2075180;28;20634;-63
2023/03/05 04:07:35;;;;;;;33.40;21.63;;;;;;;6.39;100.00;101017.22;2078785;28;20256;-63
2023/03/05 04:08:36;;;;;;;33.77;21.27;;;;;;;5.89;100.00;100930.34;2072392;28;20177;-63
2023/03/05 04:09:36;;;;;;;34.33;21.13;;;;;;;6.44;100.00;101022.31;2072480;28;20181;-63
2023/03/05 04:10:41;;;;;;;34.73;22.47;;;;;;;6.44;100.00;101016.03;2071703;28;20209;-63
2023/03/05 04:11:41;;;;;;;34.80;21.85;;;;;;;6.49;100.00;101021.13;2065439;28;20194;-63
2023/03/05 04:12:42;;;;;;;31.40;21.57;;;;;;;6.53;100.00;101021.91;2070050;28;20179;-63
2023/03/05 04:13:42;;;;;;;31.08;21.17;;;;;;;6.50;100.00;101020.75;2072122;28;20202;-63
2023/03/05 04:14:45;;;;;;;34.43;21.67;;;;;;;6.53;100.00;101017.22;2072338;28;20196;-63
2023/03/05 04:15:45;;;;;;;31.88;21.42;;;;;;;6.49;100.00;101024.69;2072363;28;20750;-63
2023/03/05 04:16:46;;;;;;;33.07;21.93;;;;;;;6.45;100.00;101012.09;2072128;28;20587;-63
2023/03/05 04:17:46;;;;;;;28.30;20.13;;;;;;;6.51;100.00;101018.78;2072309;28;20217;-63
2023/03/05 04:18:47;;;;;;;32.43;21.73;;;;;;;6.30;100.00;100996.78;2072390;28;20197;-63
2023/03/05 04:19:47;;;;;;;32.57;21.23;;;;;;;6.51;100.00;101013.28;2072445;28;20182;-63
2023/03/05 04:20:47;;;;;;;35.37;20.73;;;;;;;5.91;100.00;100922.50;2071767;28;20245;-63
2023/03/05 04:21:48;;;;;;;30.10;21.13;;;;;;;6.54;100.00;101029.00;2072290;28;20261;-63
2023/03/05 04:22:48;;;;;;;31.70;21.43;;;;;;;6.58;100.00;101016.00;2068212;28;20186;-63
2023/03/05 04:23:49;;;;;;;35.90;21.33;;;;;;;6.48;100.00;100995.59;2066796;28;20268;-63
2023/03/05 04:24:49;;;;;;;31.93;21.27;;;;;;;6.58;100.00;101016.81;2072115;28;20182;-63
2023/03/05 04:25:50;;;;;;;30.53;21.53;;;;;;;6.55;100.00;101039.63;2072275;28;20236;-64
2023/03/05 04:26:50;;;;;;;32.13;21.20;;;;;;;6.52;100.00;101023.88;2072520;28;20195;-63
2023/03/05 04:27:51;;;;;;;29.10;20.73;;;;;;;5.95;100.00;100919.75;2072522;28;20240;-63
2023/03/05 04:28:51;;;;;;;33.20;19.70;;;;;;;6.47;100.00;101012.50;2072242;28;20745;-63
2023/03/05 04:29:51;;;;;;;28.50;20.63;;;;;;;6.52;100.00;101012.84;2072324;28;20187;-63
2023/03/05 04:30:52;;;;;;;29.97;21.03;;;;;;;6.56;100.00;101016.41;2071822;28;20541;-63
2023/03/05 04:31:52;;;;;;;30.63;20.80;;;;;;;6.57;100.00;101014.44;2070644;28;20206;-63
2023/03/05 04:32:53;;;;;;;31.03;21.13;;;;;;;6.56;100.00;101008.13;2065251;28;20209;-63
2023/03/05 04:33:53;;;;;;;32.30;21.47;;;;;;;6.52;100.00;101012.09;2071692;28;20331;-63
2023/03/05 04:34:57;;;;;;;34.00;21.40;;;;;;;6.50;100.00;101006.19;2072268;28;20180;-63
2023/03/05 04:35:58;;;;;;;29.70;20.85;;;;;;;6.51;100.00;101002.25;2064052;28;20203;-63
2023/03/05 04:36:58;;;;;;;27.85;19.95;;;;;;;6.51;100.00;101011.28;2070844;28;20548;-63
2023/03/05 04:37:58;;;;;;;30.97;20.47;;;;;;;6.48;100.00;101011.31;2066418;28;20198;-64
2023/03/05 04:38:59;;;;;;;30.10;20.33;;;;;;;6.48;100.00;101014.84;2068423;28;20197;-63